Ana Sayfa
METAR-TAF:

METAR-TAF

Havaalanları :

Guthrie, Oklahoma, Amerika Birleşik Devletleri

Enlem: 35-51-07N, Boylam: 097-24-27W, yükseklik: 327 m

Güncel hava durumu gözlemi

Rapor saat 18:53 UTC de 1 saat ve 6 dakika önce yapıldı.
Rüzgar kuzeydan 11 kt ve 21 kt'a kadar ani rüzgarlar
Sıcaklık 7°C
Nem 33%
Basınç 1030 hPa
Görüş mesafesi: 16.1 km
Açık gökyüzü

METAR: KGOK 181853Z AUTO 01011G21KT 10SM CLR 07/M08 A3042 RMK AO2 PK WND 36028/1827 SLP305 T00671078

Saat: 13:59 (19:59 UTC)


TAF: eksik

4.000'den fazla havaalanı için hava durumu gözlemleri ve tahminleri (METAR ve TAF raporları).

Kullanılabilir istasyonlar harita üzerinde sarı ve kırmızı noktalarla gösterilir.

İstasyonun adını görmek için fareyi noktanın üzerinde gezdirin.

Sonrasında hava gözlem ve tahminlerini görmek için tıklayın.

Haritayı değiştirmek için: yaklaştırmak için siyah artı işaretli yeşil düğmeye ve uzaklaştırmak için de eksi işaretli düğmeye hızla tıklayın; bitişik haritalar için yeşil okları kullanın.


METAR-TAF: